createdAt,value
2022-10-14T00:00:50.231Z,15.54
2022-10-14T00:01:51.834Z,15.59
2022-10-14T00:02:53.409Z,15.60
2022-10-14T00:03:55.429Z,15.64
2022-10-14T00:04:57.016Z,15.66
2022-10-14T00:05:58.554Z,15.66
2022-10-14T00:07:00.137Z,15.70
2022-10-14T00:08:01.685Z,15.67
2022-10-14T00:09:06.778Z,15.58
2022-10-14T00:10:08.598Z,15.53
2022-10-14T00:11:17.128Z,15.47
2022-10-14T00:12:18.655Z,15.41
2022-10-14T00:13:20.206Z,15.36
2022-10-14T00:14:22.253Z,15.32
2022-10-14T00:15:23.784Z,15.26
2022-10-14T00:16:28.699Z,15.26
2022-10-14T00:17:30.266Z,15.26
2022-10-14T00:18:31.991Z,15.29
2022-10-14T00:19:33.555Z,15.25
2022-10-14T00:20:35.779Z,15.27
2022-10-14T00:21:39.096Z,15.23
2022-10-14T00:22:40.627Z,15.19
2022-10-14T00:23:42.786Z,15.13
2022-10-14T00:24:44.297Z,15.16
2022-10-14T00:25:45.812Z,15.24
2022-10-14T00:26:47.354Z,15.29
2022-10-14T00:27:48.914Z,15.36
2022-10-14T00:28:51.380Z,15.37
2022-10-14T00:29:53.083Z,15.34
2022-10-14T00:31:00.294Z,15.35
2022-10-14T00:32:01.799Z,15.35
2022-10-14T00:33:03.468Z,15.37
2022-10-14T00:34:05.040Z,15.41
2022-10-14T00:35:06.819Z,15.45
2022-10-14T00:36:09.292Z,15.47
2022-10-14T00:37:10.876Z,15.47
2022-10-14T00:38:12.411Z,15.48
2022-10-14T00:39:13.968Z,15.52
2022-10-14T00:40:15.567Z,15.54
2022-10-14T00:41:23.136Z,15.49
2022-10-14T00:42:24.893Z,15.40
2022-10-14T00:43:27.138Z,15.32
2022-10-14T00:44:28.599Z,15.29
2022-10-14T00:45:30.133Z,15.25
2022-10-14T00:46:35.049Z,15.19
2022-10-14T00:47:36.733Z,15.15
2022-10-14T00:48:38.386Z,15.10
2022-10-14T00:49:42.773Z,15.11
2022-10-14T00:50:47.088Z,15.07
2022-10-14T00:51:56.479Z,14.96
2022-10-14T00:52:59.132Z,14.90
2022-10-14T00:54:00.705Z,14.85
2022-10-14T00:55:06.625Z,14.90
2022-10-14T00:56:10.829Z,14.97
2022-10-14T00:57:13.067Z,15.05
2022-10-14T00:58:15.695Z,15.10
2022-10-14T00:59:17.800Z,15.17
2022-10-14T01:00:20.699Z,15.23
2022-10-14T01:01:22.345Z,15.26
2022-10-14T01:02:24.028Z,15.32
2022-10-14T01:03:25.595Z,15.35
2022-10-14T01:04:27.294Z,15.36
2022-10-14T01:05:36.464Z,15.36
2022-10-14T01:06:51.256Z,15.39
2022-10-14T01:07:58.553Z,15.44
2022-10-14T01:09:19.725Z,15.47
2022-10-14T01:10:33.135Z,15.50
2022-10-14T01:11:45.600Z,15.53
2022-10-14T01:13:05.792Z,15.57
2022-10-14T01:14:49.185Z,15.64
2022-10-14T01:15:53.841Z,15.62
2022-10-14T01:17:02.617Z,15.61
2022-10-14T01:18:38.578Z,15.60
2022-10-14T01:19:48.887Z,15.62
2022-10-14T01:21:16.550Z,15.63
2022-10-14T01:22:31.248Z,15.66
2022-10-14T01:23:50.960Z,15.70
2022-10-14T01:25:18.841Z,15.70
2022-10-14T01:26:39.300Z,15.55
2022-10-14T01:27:54.306Z,15.48
2022-10-14T01:29:01.919Z,15.38
2022-10-14T01:30:09.375Z,15.40
2022-10-14T01:31:18.278Z,15.38
2022-10-14T01:32:41.414Z,15.39
2022-10-14T01:33:46.142Z,15.41
2022-10-14T01:34:55.976Z,15.45
2022-10-14T01:36:03.321Z,15.42
2022-10-14T01:37:13.301Z,15.42
2022-10-14T01:38:24.216Z,15.45
2022-10-14T01:39:31.568Z,15.47
2022-10-14T01:40:43.636Z,15.42
2022-10-14T01:42:08.660Z,15.32
2022-10-14T01:43:13.699Z,15.24
2022-10-14T01:44:18.782Z,15.22
2022-10-14T01:45:22.806Z,15.22
2022-10-14T01:46:27.150Z,15.25
2022-10-14T01:47:33.119Z,15.26
2022-10-14T01:48:38.906Z,15.25
2022-10-14T01:49:46.687Z,15.16
2022-10-14T01:50:52.299Z,15.09
2022-10-14T01:52:02.905Z,15.02
2022-10-14T01:53:09.205Z,14.98
2022-10-14T01:54:19.340Z,14.96
2022-10-14T01:55:26.204Z,14.94
2022-10-14T01:56:29.911Z,14.97
2022-10-14T01:57:35.443Z,15.02
2022-10-14T01:58:39.649Z,15.08
2022-10-14T01:59:42.597Z,15.13
2022-10-14T02:00:44.287Z,15.12
2022-10-14T02:01:45.871Z,15.15
2022-10-14T02:02:48.175Z,15.17
2022-10-14T02:03:50.343Z,15.13
2022-10-14T02:04:52.381Z,15.06
2022-10-14T02:06:08.266Z,15.02
2022-10-14T02:07:24.873Z,14.94
2022-10-14T02:08:44.274Z,14.78
2022-10-14T02:10:03.436Z,14.70
2022-10-14T02:11:17.414Z,14.63
2022-10-14T02:12:36.827Z,14.61
2022-10-14T02:13:56.539Z,14.58
2022-10-14T02:15:21.971Z,14.63
2022-10-14T02:16:26.443Z,14.65
2022-10-14T02:17:35.391Z,14.64
2022-10-14T02:19:02.647Z,14.64
2022-10-14T02:20:13.217Z,14.61
2022-10-14T02:21:31.427Z,14.61
2022-10-14T02:22:38.890Z,14.70
2022-10-14T02:23:46.245Z,14.74
2022-10-14T02:24:53.693Z,14.75
2022-10-14T02:25:56.018Z,14.79
2022-10-14T02:27:03.608Z,14.82
2022-10-14T02:28:08.199Z,14.85
2022-10-14T02:29:09.856Z,14.87
2022-10-14T02:30:11.971Z,14.93
2022-10-14T02:31:16.627Z,14.96
2022-10-14T02:32:22.023Z,14.99
2022-10-14T02:33:33.154Z,15.01
2022-10-14T02:34:37.008Z,15.02
2022-10-14T02:35:41.464Z,14.99
2022-10-14T02:36:45.084Z,15.00
2022-10-14T02:37:48.630Z,15.02
2022-10-14T02:38:52.538Z,14.97
2022-10-14T02:40:36.000Z,14.96
2022-10-14T02:41:38.827Z,14.91
2022-10-14T02:42:40.881Z,14.85
2022-10-14T02:43:43.848Z,14.88
2022-10-14T02:44:54.057Z,14.87
2022-10-14T02:46:01.803Z,14.77
2022-10-14T02:47:03.718Z,14.65
2022-10-14T02:48:05.797Z,14.55
2022-10-14T02:49:07.429Z,14.45
2022-10-14T02:50:09.476Z,14.37
2022-10-14T02:51:10.987Z,14.31
2022-10-14T02:52:12.524Z,14.31
2022-10-14T02:53:16.109Z,14.25
2022-10-14T02:54:17.640Z,14.21
2022-10-14T02:55:19.185Z,14.16
2022-10-14T02:56:20.685Z,14.10
2022-10-14T02:57:22.219Z,14.00
2022-10-14T02:58:23.733Z,14.01
2022-10-14T02:59:25.325Z,13.99
2022-10-14T03:00:27.043Z,14.00
2022-10-14T03:01:29.468Z,14.04
2022-10-14T03:02:33.179Z,14.02
2022-10-14T03:03:35.062Z,13.98
2022-10-14T03:04:36.833Z,14.00
2022-10-14T03:05:38.357Z,14.00
2022-10-14T03:06:39.950Z,13.99
2022-10-14T03:07:41.461Z,14.06
2022-10-14T03:08:42.977Z,14.16
2022-10-14T03:09:44.580Z,14.14
2022-10-14T03:10:48.041Z,14.04
2022-10-14T03:11:49.567Z,13.99
2022-10-14T03:12:51.095Z,13.95
2022-10-14T03:13:52.635Z,13.96
2022-10-14T03:14:54.334Z,13.86
2022-10-14T03:15:55.957Z,13.73
2022-10-14T03:16:57.519Z,13.66
2022-10-14T03:17:59.020Z,13.65
2022-10-14T03:19:00.519Z,13.72
2022-10-14T03:20:03.127Z,13.82
2022-10-14T03:21:04.813Z,13.92
2022-10-14T03:22:06.335Z,13.98
2022-10-14T03:23:07.858Z,14.02
2022-10-14T03:24:09.938Z,14.05
2022-10-14T03:25:11.540Z,14.12
2022-10-14T03:26:14.089Z,14.07
2022-10-14T03:27:15.840Z,14.07
2022-10-14T03:28:17.618Z,14.07
2022-10-14T03:29:19.168Z,14.11
2022-10-14T03:30:20.684Z,14.14
2022-10-14T03:31:22.216Z,14.12
2022-10-14T03:32:24.140Z,14.10
2022-10-14T03:33:26.425Z,14.08
2022-10-14T03:34:28.296Z,14.04
2022-10-14T03:35:29.856Z,14.01
2022-10-14T03:36:31.446Z,14.01
2022-10-14T03:37:33.146Z,14.04
2022-10-14T03:38:34.675Z,14.08
2022-10-14T03:39:36.183Z,14.15
2022-10-14T03:40:37.771Z,14.19
2022-10-14T03:41:39.717Z,14.23
2022-10-14T03:42:42.695Z,14.24
2022-10-14T03:43:44.298Z,14.30
2022-10-14T03:44:46.304Z,14.37
2022-10-14T03:45:47.963Z,14.32
2022-10-14T03:46:49.501Z,14.25
2022-10-14T03:47:51.039Z,14.20
2022-10-14T03:48:53.201Z,14.14
2022-10-14T03:49:54.735Z,14.12
2022-10-14T03:50:56.271Z,14.14
2022-10-14T03:51:58.179Z,14.20
2022-10-14T03:52:59.695Z,14.19
2022-10-14T03:54:01.244Z,14.20
2022-10-14T03:55:03.129Z,14.19
2022-10-14T03:56:05.059Z,14.02
2022-10-14T03:57:06.646Z,13.79
2022-10-14T03:58:09.373Z,13.64
2022-10-14T03:59:10.909Z,13.55
2022-10-14T04:00:13.304Z,13.51
2022-10-14T04:01:14.952Z,13.52
2022-10-14T04:02:16.510Z,13.50
2022-10-14T04:03:18.068Z,13.45
2022-10-14T04:04:19.610Z,13.52
2022-10-14T04:05:21.112Z,13.61
2022-10-14T04:06:22.714Z,13.66
2022-10-14T04:07:24.360Z,13.67
2022-10-14T04:08:25.978Z,13.70
2022-10-14T04:09:29.030Z,13.73
2022-10-14T04:10:31.147Z,13.68
2022-10-14T04:11:32.699Z,13.59
2022-10-14T04:12:34.229Z,13.60
2022-10-14T04:13:36.756Z,13.58
2022-10-14T04:14:38.305Z,13.59
2022-10-14T04:15:39.840Z,13.61
2022-10-14T04:16:43.956Z,13.66
2022-10-14T04:17:47.697Z,13.88
2022-10-14T04:18:49.218Z,13.91
2022-10-14T04:19:51.202Z,13.84
2022-10-14T04:20:52.729Z,13.73
2022-10-14T04:21:54.270Z,13.74
2022-10-14T04:22:58.900Z,13.79
2022-10-14T04:24:03.699Z,13.87
2022-10-14T04:25:08.554Z,13.96
2022-10-14T04:26:10.372Z,14.02
2022-10-14T04:27:11.976Z,14.12
2022-10-14T04:28:13.540Z,14.12
2022-10-14T04:29:15.202Z,14.11
2022-10-14T04:30:16.811Z,14.13
2022-10-14T04:31:18.342Z,14.16
2022-10-14T04:32:20.767Z,14.17
2022-10-14T04:33:22.481Z,14.21
2022-10-14T04:34:23.984Z,14.25
2022-10-14T04:35:25.545Z,14.25
2022-10-14T04:36:27.075Z,14.28
2022-10-14T04:37:29.776Z,14.31
2022-10-14T04:38:31.773Z,14.34
2022-10-14T04:39:33.393Z,14.36
2022-10-14T04:40:34.930Z,14.37
2022-10-14T04:41:36.437Z,14.39
2022-10-14T04:42:38.008Z,14.42
2022-10-14T04:43:39.533Z,14.43
2022-10-14T04:44:41.030Z,14.46
2022-10-14T04:45:42.720Z,14.50
2022-10-14T04:46:44.263Z,14.55
2022-10-14T04:47:48.578Z,14.55
2022-10-14T04:48:50.433Z,14.55
2022-10-14T04:49:52.004Z,14.52
2022-10-14T04:50:54.434Z,14.52
2022-10-14T04:51:56.001Z,14.50
2022-10-14T04:52:57.869Z,14.49
2022-10-14T04:54:00.388Z,14.44
2022-10-14T04:55:03.531Z,14.41
2022-10-14T04:56:05.889Z,14.41
2022-10-14T04:57:07.755Z,14.40
2022-10-14T04:58:09.546Z,14.40
2022-10-14T04:59:12.061Z,14.41
2022-10-14T05:00:14.793Z,14.31
2022-10-14T05:01:17.657Z,14.07
2022-10-14T05:02:19.491Z,13.94
2022-10-14T05:03:21.301Z,13.84
2022-10-14T05:04:22.867Z,13.81
2022-10-14T05:05:24.384Z,13.70
2022-10-14T05:06:25.941Z,13.54
2022-10-14T05:07:27.490Z,13.49
2022-10-14T05:08:29.061Z,13.42
2022-10-14T05:09:30.609Z,13.45
2022-10-14T05:10:32.488Z,13.50
2022-10-14T05:11:34.556Z,13.41
2022-10-14T05:12:37.853Z,13.42
2022-10-14T05:13:39.465Z,13.34
2022-10-14T05:14:41.005Z,13.32
2022-10-14T05:15:42.544Z,13.31
2022-10-14T05:16:44.089Z,13.34
2022-10-14T05:17:45.937Z,13.45
2022-10-14T05:18:47.470Z,13.48
2022-10-14T05:19:49.101Z,13.54
2022-10-14T05:20:50.720Z,13.53
2022-10-14T05:21:52.277Z,13.47
2022-10-14T05:22:53.829Z,13.37
2022-10-14T05:23:55.594Z,13.31
2022-10-14T05:24:57.131Z,13.21
2022-10-14T05:25:58.664Z,13.07
2022-10-14T05:27:00.436Z,12.93
2022-10-14T05:28:02.040Z,12.87
2022-10-14T05:29:04.509Z,12.92
2022-10-14T05:30:06.637Z,12.98
2022-10-14T05:31:08.229Z,12.95
2022-10-14T05:32:09.869Z,12.93
2022-10-14T05:33:12.050Z,12.90
2022-10-14T05:34:13.717Z,12.88
2022-10-14T05:35:15.296Z,12.95
2022-10-14T05:36:16.827Z,12.98
2022-10-14T05:37:18.374Z,13.00
2022-10-14T05:38:19.888Z,13.06
2022-10-14T05:39:21.615Z,13.16
2022-10-14T05:40:24.117Z,13.21
2022-10-14T05:41:26.543Z,13.26
2022-10-14T05:42:28.132Z,13.32
2022-10-14T05:43:32.710Z,13.40
2022-10-14T05:44:34.709Z,13.46
2022-10-14T05:45:36.253Z,13.50
2022-10-14T05:46:37.985Z,13.48
2022-10-14T05:47:39.572Z,13.46
2022-10-14T05:48:41.124Z,13.46
2022-10-14T05:49:42.844Z,13.49
2022-10-14T05:50:44.396Z,13.51
2022-10-14T05:51:46.004Z,13.51
2022-10-14T05:52:47.814Z,13.56
2022-10-14T05:53:49.502Z,13.62
2022-10-14T05:54:51.046Z,13.66
2022-10-14T05:55:52.658Z,13.75
2022-10-14T05:56:54.257Z,13.75
2022-10-14T05:57:56.679Z,13.83
2022-10-14T05:58:58.275Z,13.95
2022-10-14T06:00:01.516Z,14.04
2022-10-14T06:01:05.341Z,14.09
2022-10-14T06:02:08.717Z,14.15
2022-10-14T06:03:13.217Z,14.15
2022-10-14T06:04:18.754Z,14.18
2022-10-14T06:05:20.308Z,14.27
2022-10-14T06:06:26.585Z,14.26
2022-10-14T06:07:30.322Z,14.34
2022-10-14T06:08:31.932Z,14.43
2022-10-14T06:09:33.605Z,14.53
2022-10-14T06:10:35.728Z,14.63
2022-10-14T06:11:37.355Z,14.76
2022-10-14T06:12:39.348Z,14.78
2022-10-14T06:13:41.111Z,14.81
2022-10-14T06:14:42.657Z,14.84
2022-10-14T06:15:44.273Z,14.90
2022-10-14T06:16:45.894Z,14.96
2022-10-14T06:17:47.449Z,15.01
2022-10-14T06:18:54.105Z,15.05
2022-10-14T06:19:56.105Z,15.08
2022-10-14T06:20:57.719Z,15.12
2022-10-14T06:21:59.740Z,15.16
2022-10-14T06:23:02.364Z,15.21
2022-10-14T06:24:04.057Z,15.23
2022-10-14T06:25:06.025Z,15.32
2022-10-14T06:26:09.774Z,15.40
2022-10-14T06:27:11.323Z,15.43
2022-10-14T06:28:13.056Z,15.42
2022-10-14T06:29:15.271Z,15.43
2022-10-14T06:30:16.869Z,15.42
2022-10-14T06:31:18.492Z,15.44
2022-10-14T06:32:20.461Z,15.42
2022-10-14T06:33:22.741Z,15.37
2022-10-14T06:34:24.798Z,15.13
2022-10-14T06:35:26.360Z,15.02
2022-10-14T06:36:28.016Z,15.07
2022-10-14T06:37:29.549Z,15.11
2022-10-14T06:38:31.638Z,15.03
2022-10-14T06:39:33.185Z,15.08
2022-10-14T06:40:36.100Z,15.12
2022-10-14T06:41:37.859Z,15.16
2022-10-14T06:42:39.994Z,15.19
2022-10-14T06:43:41.516Z,15.19
2022-10-14T06:44:43.078Z,15.03
2022-10-14T06:45:44.618Z,14.98
2022-10-14T06:46:46.271Z,14.88
2022-10-14T06:47:47.825Z,14.92
2022-10-14T06:48:50.428Z,14.92
2022-10-14T06:49:52.172Z,14.96
2022-10-14T06:50:53.693Z,14.99
2022-10-14T06:51:55.235Z,15.05
2022-10-14T06:52:56.915Z,15.11
2022-10-14T06:53:58.513Z,15.10
2022-10-14T06:55:00.103Z,15.06
2022-10-14T06:56:06.395Z,14.82
2022-10-14T06:57:07.958Z,14.70
2022-10-14T06:58:10.026Z,14.55
2022-10-14T06:59:11.929Z,14.50
2022-10-14T07:00:13.794Z,14.48
2022-10-14T07:01:15.360Z,14.47
2022-10-14T07:02:16.966Z,14.61
2022-10-14T07:03:18.796Z,14.58
2022-10-14T07:04:20.319Z,14.52
2022-10-14T07:05:21.942Z,14.65
2022-10-14T07:06:23.787Z,14.75
2022-10-14T07:07:25.361Z,14.85
2022-10-14T07:08:26.872Z,14.96
2022-10-14T07:09:29.185Z,15.05
2022-10-14T07:10:30.725Z,15.11
2022-10-14T07:11:32.377Z,15.19
2022-10-14T07:12:34.020Z,15.25
2022-10-14T07:13:35.658Z,15.32
2022-10-14T07:14:37.188Z,15.37
2022-10-14T07:15:39.142Z,15.46
2022-10-14T07:16:43.817Z,15.53
2022-10-14T07:17:45.365Z,15.56
2022-10-14T07:18:46.908Z,15.55
2022-10-14T07:19:48.507Z,15.53
2022-10-14T07:20:50.086Z,15.56
2022-10-14T07:21:51.679Z,15.60
2022-10-14T07:22:56.914Z,15.65
2022-10-14T07:23:58.506Z,15.71
2022-10-14T07:25:00.033Z,15.68
2022-10-14T07:26:01.730Z,15.51
2022-10-14T07:28:05.932Z,15.34
2022-10-14T07:29:07.986Z,15.31
2022-10-14T07:30:12.595Z,15.37
2022-10-14T07:31:17.109Z,15.35
2022-10-14T07:32:18.665Z,15.31
2022-10-14T07:33:20.221Z,15.32
2022-10-14T07:34:21.830Z,15.40
2022-10-14T07:35:23.442Z,15.43
2022-10-14T07:36:25.020Z,15.36
2022-10-14T07:37:26.556Z,15.40
2022-10-14T07:38:28.102Z,15.46
2022-10-14T07:39:29.863Z,15.41
2022-10-14T07:40:31.457Z,15.40
2022-10-14T07:41:33.883Z,15.44
2022-10-14T07:42:35.449Z,15.38
2022-10-14T07:43:36.993Z,15.36
2022-10-14T07:44:39.898Z,15.39
2022-10-14T07:45:44.016Z,15.35
2022-10-14T07:46:45.713Z,15.33
2022-10-14T07:47:49.450Z,15.27
2022-10-14T07:48:57.321Z,15.30
2022-10-14T07:50:02.679Z,15.29
2022-10-14T07:51:04.260Z,15.36
2022-10-14T07:52:05.955Z,15.34
2022-10-14T07:53:07.600Z,15.28
2022-10-14T07:54:13.882Z,15.24
2022-10-14T07:55:15.538Z,15.25
2022-10-14T07:56:17.148Z,15.25
2022-10-14T07:57:18.982Z,15.25
2022-10-14T07:58:26.672Z,15.30
2022-10-14T07:59:28.235Z,15.25
2022-10-14T08:00:29.788Z,15.22
2022-10-14T08:01:31.399Z,15.24
2022-10-14T08:02:33.012Z,15.25
2022-10-14T08:03:34.553Z,15.19
2022-10-14T08:04:36.405Z,15.15
2022-10-14T08:05:38.993Z,15.16
2022-10-14T08:06:41.027Z,15.16
2022-10-14T08:07:42.611Z,15.13
2022-10-14T08:08:44.909Z,15.17
2022-10-14T08:09:47.407Z,15.24
2022-10-14T08:10:49.235Z,15.26
2022-10-14T08:11:50.796Z,15.26
2022-10-14T08:12:52.323Z,15.30
2022-10-14T08:13:55.161Z,15.34
2022-10-14T08:14:57.878Z,15.40
2022-10-14T08:15:59.786Z,15.42
2022-10-14T08:17:01.504Z,15.47
2022-10-14T08:18:03.252Z,15.54
2022-10-14T08:19:14.119Z,15.55
2022-10-14T08:20:16.476Z,15.48
2022-10-14T08:21:19.157Z,15.44
2022-10-14T08:22:21.245Z,15.38
2022-10-14T08:23:22.973Z,15.35
2022-10-14T08:24:24.535Z,15.29
2022-10-14T08:25:27.222Z,15.24
2022-10-14T08:26:31.310Z,15.27
2022-10-14T08:27:32.849Z,15.28
2022-10-14T08:28:34.428Z,15.24
2022-10-14T08:29:35.997Z,15.21
2022-10-14T08:30:37.596Z,15.22
2022-10-14T08:31:39.201Z,15.17
2022-10-14T08:32:40.723Z,15.10
2022-10-14T08:33:42.356Z,15.11
2022-10-14T08:34:43.955Z,15.14
2022-10-14T08:35:48.145Z,15.14
2022-10-14T08:36:51.912Z,15.15
2022-10-14T08:38:00.120Z,15.15
2022-10-14T08:39:01.828Z,15.15
2022-10-14T08:40:04.617Z,15.11
2022-10-14T08:41:12.198Z,15.09
2022-10-14T08:42:35.015Z,15.07
2022-10-14T08:43:48.403Z,15.07
2022-10-14T08:45:17.695Z,15.11
2022-10-14T08:46:25.140Z,15.09
2022-10-14T08:47:36.684Z,15.11
2022-10-14T08:48:39.358Z,15.10
2022-10-14T08:50:04.070Z,15.09
2022-10-14T08:51:13.380Z,15.11
2022-10-14T08:52:25.483Z,15.19
2022-10-14T08:53:34.195Z,15.24
2022-10-14T08:54:41.583Z,15.19
2022-10-14T08:55:55.609Z,15.22
2022-10-14T08:56:58.871Z,15.22
2022-10-14T08:58:10.558Z,15.22
2022-10-14T08:59:16.115Z,15.21
2022-10-14T09:00:21.067Z,15.22
2022-10-14T09:01:24.720Z,15.21
2022-10-14T09:02:48.101Z,15.18
2022-10-14T09:03:54.150Z,15.19
2022-10-14T09:04:56.967Z,15.13
2022-10-14T09:06:02.205Z,15.13
2022-10-14T09:07:04.777Z,15.20
2022-10-14T09:08:08.219Z,15.23
2022-10-14T09:09:39.543Z,15.24
2022-10-14T09:10:42.568Z,15.26
2022-10-14T09:11:49.021Z,15.26
2022-10-14T09:12:53.634Z,15.33
2022-10-14T09:13:59.708Z,15.29
2022-10-14T09:15:13.573Z,15.35
2022-10-14T09:16:27.830Z,15.34
2022-10-14T09:17:38.367Z,15.33
2022-10-14T09:18:45.389Z,15.30
2022-10-14T09:20:00.293Z,15.33
2022-10-14T09:21:04.147Z,15.35
2022-10-14T09:22:12.965Z,15.35
2022-10-14T09:23:20.395Z,15.35
2022-10-14T09:24:37.119Z,15.43
2022-10-14T09:25:43.337Z,15.50
2022-10-14T09:26:51.159Z,15.51
2022-10-14T09:27:52.874Z,15.48
2022-10-14T09:28:55.031Z,15.48
2022-10-14T09:30:10.252Z,15.52
2022-10-14T09:31:13.930Z,15.54
2022-10-14T09:32:35.713Z,15.58
2022-10-14T09:33:42.596Z,15.63
2022-10-14T09:34:50.664Z,15.60
2022-10-14T09:35:52.301Z,15.60
2022-10-14T09:36:53.929Z,15.56
2022-10-14T09:37:55.633Z,15.61
2022-10-14T09:39:02.282Z,15.67
2022-10-14T09:40:15.843Z,15.71
2022-10-14T09:41:19.106Z,15.72
2022-10-14T09:42:26.655Z,15.78
2022-10-14T09:43:29.791Z,15.82
2022-10-14T09:44:31.406Z,15.84
2022-10-14T09:45:59.724Z,15.82
2022-10-14T09:47:12.267Z,15.84
2022-10-14T09:48:37.861Z,15.84
2022-10-14T09:49:45.803Z,15.85
2022-10-14T09:50:53.643Z,15.85
2022-10-14T09:51:57.038Z,15.95
2022-10-14T09:53:09.246Z,15.93
2022-10-14T09:54:28.167Z,15.91
2022-10-14T09:55:30.822Z,15.93
2022-10-14T09:56:39.080Z,15.93
2022-10-14T09:57:44.568Z,15.94
2022-10-14T09:58:53.632Z,15.92
2022-10-14T10:00:00.638Z,15.92
2022-10-14T10:01:02.808Z,15.95
2022-10-14T10:02:05.534Z,15.99
2022-10-14T10:03:07.630Z,16.06
2022-10-14T10:04:30.169Z,16.05
2022-10-14T10:05:34.789Z,16.07
2022-10-14T10:06:52.004Z,16.04
2022-10-14T10:08:05.713Z,16.05
2022-10-14T10:09:18.984Z,16.09
2022-10-14T10:10:22.582Z,16.11
2022-10-14T10:11:38.798Z,16.11
2022-10-14T10:12:46.366Z,16.13
2022-10-14T10:13:48.241Z,16.11
2022-10-14T10:14:59.216Z,16.05
2022-10-14T10:16:03.987Z,16.08
2022-10-14T10:17:08.845Z,16.09
2022-10-14T10:18:19.833Z,16.15
2022-10-14T10:19:43.087Z,16.21
2022-10-14T10:21:02.238Z,16.21
2022-10-14T10:22:34.151Z,16.19
2022-10-14T10:23:36.466Z,16.20
2022-10-14T10:24:38.017Z,16.22
2022-10-14T10:25:39.638Z,16.20
2022-10-14T10:26:41.252Z,16.18
2022-10-14T10:27:48.888Z,16.19
2022-10-14T10:28:50.497Z,16.22
2022-10-14T10:29:52.667Z,16.23
2022-10-14T10:31:12.593Z,16.23
2022-10-14T10:32:26.927Z,16.30
2022-10-14T10:33:42.780Z,16.34
2022-10-14T10:35:01.756Z,16.42
2022-10-14T10:36:10.095Z,16.44
2022-10-14T10:37:26.689Z,16.45
2022-10-14T10:38:40.030Z,16.41
2022-10-14T10:40:12.605Z,16.48
2022-10-14T10:41:26.160Z,16.49
2022-10-14T10:43:03.677Z,16.48
2022-10-14T10:44:59.966Z,16.53
2022-10-14T10:46:24.223Z,16.63
2022-10-14T10:47:26.607Z,16.67
2022-10-14T10:48:42.673Z,16.63
2022-10-14T10:49:50.342Z,16.59
2022-10-14T10:51:05.477Z,16.65
2022-10-14T10:52:30.735Z,16.60
2022-10-14T10:53:41.137Z,16.67
2022-10-14T10:55:02.977Z,16.74
2022-10-14T10:56:04.620Z,16.80
2022-10-14T10:57:25.169Z,16.77
2022-10-14T10:58:48.472Z,16.81
2022-10-14T10:59:56.371Z,16.85
2022-10-14T11:01:02.020Z,16.85
2022-10-14T11:02:22.246Z,16.83
2022-10-14T11:03:24.606Z,16.80
2022-10-14T11:04:54.832Z,16.84
2022-10-14T11:06:00.701Z,16.81
2022-10-14T11:07:38.112Z,16.77
2022-10-14T11:09:11.871Z,16.73
2022-10-14T11:10:48.449Z,16.79
2022-10-14T11:12:12.843Z,16.83
2022-10-14T11:13:47.675Z,16.87
2022-10-14T11:15:11.774Z,16.88
2022-10-14T11:16:21.583Z,16.79
2022-10-14T11:19:14.755Z,16.66
2022-10-14T11:20:31.675Z,16.64
2022-10-14T11:21:45.387Z,16.63
2022-10-14T11:22:50.878Z,16.61
2022-10-14T11:24:05.541Z,16.59
2022-10-14T11:25:27.439Z,16.56
2022-10-14T11:26:53.386Z,16.52
2022-10-14T11:28:13.166Z,16.52
2022-10-14T11:29:38.162Z,16.56
2022-10-14T11:31:04.808Z,16.58
2022-10-14T11:32:06.497Z,16.61
2022-10-14T11:33:10.692Z,16.60
2022-10-14T11:34:18.210Z,16.58
2022-10-14T11:35:45.556Z,16.52
2022-10-14T11:37:04.050Z,16.46
2022-10-14T11:38:39.367Z,16.44
2022-10-14T11:39:52.580Z,16.40
2022-10-14T11:41:50.110Z,16.41
2022-10-14T11:43:26.127Z,16.44
2022-10-14T11:44:42.810Z,16.46
2022-10-14T11:46:00.353Z,16.48
2022-10-14T11:47:09.997Z,16.59
2022-10-14T11:48:24.140Z,16.62
2022-10-14T11:49:30.266Z,16.66
2022-10-14T11:50:40.639Z,16.60
2022-10-14T11:51:55.422Z,16.61
2022-10-14T11:53:24.679Z,16.65
2022-10-14T11:54:49.080Z,16.61
2022-10-14T11:56:31.025Z,16.60
2022-10-14T11:57:42.015Z,16.66
2022-10-14T11:58:45.560Z,16.65
2022-10-14T12:00:14.707Z,16.62
2022-10-14T12:01:20.583Z,16.59
2022-10-14T12:02:52.376Z,16.58
2022-10-14T12:04:03.732Z,16.62
2022-10-14T12:05:34.369Z,16.60
2022-10-14T12:06:42.051Z,16.59
2022-10-14T12:07:56.074Z,16.63
2022-10-14T12:09:08.893Z,16.66
2022-10-14T12:10:22.887Z,16.71
2022-10-14T12:11:30.081Z,16.74
2022-10-14T12:12:34.510Z,16.77
2022-10-14T12:13:44.616Z,16.77
2022-10-14T12:14:59.201Z,16.76
2022-10-14T12:16:03.010Z,16.76
2022-10-14T12:17:14.708Z,16.78
2022-10-14T12:18:22.874Z,16.75
2022-10-14T12:19:29.488Z,16.82
2022-10-14T12:20:37.952Z,16.87
2022-10-14T12:22:03.094Z,16.92
2022-10-14T12:23:08.393Z,16.94
2022-10-14T12:24:17.109Z,16.94
2022-10-14T12:25:24.164Z,16.95
2022-10-14T12:26:25.757Z,16.92
2022-10-14T12:27:28.999Z,16.90
2022-10-14T12:28:31.120Z,16.89
2022-10-14T12:29:36.292Z,16.90
2022-10-14T12:30:41.373Z,16.90
2022-10-14T12:32:08.508Z,16.97
2022-10-14T12:33:13.303Z,17.04
2022-10-14T12:34:18.873Z,17.04
2022-10-14T12:35:50.809Z,17.08
2022-10-14T12:36:52.386Z,17.21
2022-10-14T12:39:17.874Z,17.27
2022-10-14T12:40:24.962Z,17.33
2022-10-14T12:41:39.615Z,17.32
2022-10-14T12:42:44.116Z,17.29
2022-10-14T12:43:59.634Z,17.34
2022-10-14T12:45:14.380Z,17.31
2022-10-14T12:46:16.001Z,17.17
2022-10-14T12:47:31.970Z,17.11
2022-10-14T12:48:35.893Z,17.15
2022-10-14T12:49:37.922Z,17.15
2022-10-14T12:50:43.869Z,17.10
2022-10-14T12:52:06.142Z,17.08
2022-10-14T12:53:29.794Z,17.09
2022-10-14T12:54:33.006Z,17.12
2022-10-14T12:55:49.676Z,17.10
2022-10-14T12:57:05.110Z,17.05
2022-10-14T12:58:06.781Z,17.02
2022-10-14T12:59:19.871Z,17.07
2022-10-14T13:00:29.112Z,17.07
2022-10-14T13:01:35.303Z,17.05
2022-10-14T13:02:45.366Z,17.03
2022-10-14T13:05:26.269Z,17.01
2022-10-14T13:06:35.749Z,16.95
2022-10-14T13:07:49.032Z,16.92
2022-10-14T13:09:12.497Z,16.96
2022-10-14T13:10:45.871Z,16.97
2022-10-14T13:11:53.713Z,17.03
2022-10-14T13:12:55.354Z,16.96
2022-10-14T13:14:01.785Z,16.88
2022-10-14T13:15:30.668Z,16.82
2022-10-14T13:16:32.313Z,16.78
2022-10-14T13:17:47.000Z,16.78
2022-10-14T13:18:51.370Z,16.76
2022-10-14T13:19:52.970Z,16.77
2022-10-14T13:20:54.925Z,16.85
2022-10-14T13:21:56.900Z,16.92
2022-10-14T13:23:30.796Z,17.07
2022-10-14T13:24:38.499Z,17.12
2022-10-14T13:25:40.226Z,17.14
2022-10-14T13:26:58.461Z,17.17
2022-10-14T13:28:02.787Z,17.13
2022-10-14T13:29:35.146Z,17.19
2022-10-14T13:30:59.380Z,17.18
2022-10-14T13:32:23.704Z,17.11
2022-10-14T13:33:39.872Z,17.01
2022-10-14T13:35:12.200Z,16.85
2022-10-14T13:36:19.590Z,16.73
2022-10-14T13:37:39.746Z,16.63
2022-10-14T13:38:59.305Z,16.58
2022-10-14T13:41:30.821Z,16.66
2022-10-14T13:42:36.976Z,16.61
2022-10-14T13:43:42.729Z,16.47
2022-10-14T13:44:44.514Z,16.26
2022-10-14T13:45:54.912Z,16.11
2022-10-14T13:46:56.865Z,16.07
2022-10-14T13:47:58.723Z,16.09
2022-10-14T13:49:05.344Z,16.16
2022-10-14T13:50:11.046Z,16.21
2022-10-14T13:51:31.878Z,16.28
2022-10-14T13:52:37.227Z,16.11
2022-10-14T13:53:50.966Z,16.06
2022-10-14T13:55:15.741Z,15.85
2022-10-14T13:56:26.442Z,15.75
2022-10-14T13:57:48.243Z,15.77
2022-10-14T13:58:49.955Z,15.73
2022-10-14T14:00:28.139Z,15.67
2022-10-14T14:01:14.237Z,15.82
2022-10-14T14:02:20.759Z,15.85
2022-10-14T14:03:28.731Z,15.48
2022-10-14T14:04:36.199Z,15.32
2022-10-14T14:05:37.870Z,15.26
2022-10-14T14:07:00.495Z,15.40
2022-10-14T14:08:38.620Z,15.57
2022-10-14T14:09:31.395Z,15.47
2022-10-14T14:10:34.581Z,15.45
2022-10-14T14:11:47.349Z,15.31
2022-10-14T14:12:49.904Z,15.24
2022-10-14T14:14:08.145Z,15.28
2022-10-14T14:15:22.338Z,15.17
2022-10-14T14:16:29.202Z,15.07
2022-10-14T14:17:33.357Z,15.12
2022-10-14T14:18:49.358Z,15.13
2022-10-14T14:19:58.476Z,15.13
2022-10-14T14:21:00.347Z,15.14
2022-10-14T14:22:14.019Z,15.11
2022-10-14T14:23:15.556Z,15.11
2022-10-14T14:24:22.246Z,15.12
2022-10-14T14:25:34.668Z,15.10
2022-10-14T14:26:39.309Z,15.11
2022-10-14T14:27:49.055Z,15.15
2022-10-14T14:28:50.700Z,15.16